Time;durP1;ratioP1;P1;durP2;ratioP2;P2;SDS_P1;SDS_P2;PMS_P1;PMS_P2;Temp;Humidity;BMP_temperature;BMP_pressure;BME280_temperature;BME280_humidity;BME280_pressure;Samples;Min_cycle;Max_cycle;Signal;HPM_P1;HPM_P2
2023/09/23 00:01:20;;;;;;;1999.90;999.90;;;;;;;11.55;100.00;93899.13;5063751;28;20244;-50
2023/09/23 00:03:46;;;;;;;1999.90;999.90;;;;;;;11.61;100.00;93887.19;5063521;28;20541;-50
2023/09/23 00:06:12;;;;;;;1999.90;999.90;;;;;;;11.62;100.00;93893.41;5063988;28;20201;-54
2023/09/23 00:08:38;;;;;;;1999.90;999.90;;;;;;;11.64;100.00;93893.72;5063586;28;20209;-50
2023/09/23 00:11:04;;;;;;;1999.90;999.90;;;;;;;11.66;100.00;93894.78;5064164;28;20178;-52
2023/09/23 00:13:30;;;;;;;1999.90;999.90;;;;;;;11.58;100.00;93892.75;5064331;28;20174;-51
2023/09/23 00:15:55;;;;;;;1999.90;999.90;;;;;;;11.57;100.00;93897.44;5063614;28;20170;-50
2023/09/23 00:18:21;;;;;;;1999.90;999.90;;;;;;;11.68;100.00;93895.13;5064001;28;20177;-53
2023/09/23 00:20:47;;;;;;;1999.90;999.90;;;;;;;11.72;100.00;93890.28;5063518;28;20177;-53
2023/09/23 00:23:13;;;;;;;1999.90;999.90;;;;;;;11.70;100.00;93889.22;5064026;28;20195;-51
2023/09/23 00:25:39;;;;;;;1999.90;999.90;;;;;;;11.77;100.00;93880.75;5063579;28;20177;-52
2023/09/23 00:28:10;;;;;;;1999.90;999.90;;;;;;;11.79;100.00;93875.56;5064026;28;20201;-50
2023/09/23 00:30:36;;;;;;;1999.90;999.90;;;;;;;11.82;100.00;93869.22;5063503;28;20245;-52
2023/09/23 00:33:02;;;;;;;1999.90;999.90;;;;;;;11.77;100.00;93853.41;5063762;28;20188;-50
2023/09/23 00:35:28;;;;;;;1999.90;999.90;;;;;;;11.74;100.00;93849.59;5063375;28;20178;-53
2023/09/23 00:37:53;;;;;;;1999.90;999.90;;;;;;;11.79;100.00;93845.50;5063419;28;20182;-49
2023/09/23 00:40:32;;;;;;;1999.90;999.90;;;;;;;11.76;100.00;93835.47;5063393;28;20181;-54
2023/09/23 00:43:05;;;;;;;1999.90;999.90;;;;;;;11.68;100.00;93831.47;5065964;28;20193;-48
2023/09/23 00:45:31;;;;;;;1999.90;999.90;;;;;;;11.81;100.00;93818.47;5067750;28;20236;-51
2023/09/23 00:47:58;;;;;;;1999.90;999.90;;;;;;;11.82;100.00;93814.50;5067074;28;20201;-51
2023/09/23 00:50:24;;;;;;;1999.90;999.90;;;;;;;11.82;100.00;93826.22;5067620;28;20178;-51
2023/09/23 00:52:53;;;;;;;1999.90;999.90;;;;;;;11.80;100.00;93827.88;5067595;28;20390;-50
2023/09/23 00:55:19;;;;;;;1999.90;999.90;;;;;;;11.75;100.00;93828.47;5066929;28;20178;-51
2023/09/23 00:57:52;;;;;;;1999.90;999.90;;;;;;;11.79;100.00;93821.66;5066872;28;20204;-54
2023/09/23 01:00:25;;;;;;;1999.90;999.90;;;;;;;11.79;100.00;93826.34;5067541;28;20173;-52
2023/09/23 01:02:55;;;;;;;1999.90;999.90;;;;;;;11.82;100.00;93815.28;5067470;28;20169;-54
2023/09/23 01:05:21;;;;;;;1999.90;999.90;;;;;;;11.81;100.00;93807.53;5066852;28;20220;-52
2023/09/23 01:07:48;;;;;;;1999.90;999.90;;;;;;;11.81;100.00;93807.53;5067442;28;20235;-51
2023/09/23 01:10:14;;;;;;;1999.90;999.90;;;;;;;11.83;100.00;93816.81;5066547;28;20231;-51
2023/09/23 01:12:39;;;;;;;1999.90;999.90;;;;;;;11.84;100.00;93823.78;5066706;28;20201;-53
2023/09/23 01:15:17;;;;;;;1999.90;999.90;;;;;;;11.83;100.00;93838.69;5066913;28;20174;-53
2023/09/23 01:17:48;;;;;;;1999.90;999.90;;;;;;;11.84;100.00;93845.66;5067490;28;20179;-54
2023/09/23 01:20:16;;;;;;;1999.90;999.90;;;;;;;11.91;100.00;93859.06;5067081;28;20170;-51
2023/09/23 01:22:41;;;;;;;1999.90;999.90;;;;;;;11.92;100.00;93859.84;5066593;28;20551;-54
2023/09/23 01:25:07;;;;;;;1999.90;999.90;;;;;;;11.87;100.00;93860.44;5067047;28;20173;-51
2023/09/23 01:27:35;;;;;;;1999.90;999.90;;;;;;;11.94;100.00;93866.38;5066309;28;20181;-53
2023/09/23 01:30:05;;;;;;;1999.90;999.90;;;;;;;11.90;100.00;93865.00;5066439;28;20170;-51
2023/09/23 01:32:36;;;;;;;1999.90;999.90;;;;;;;12.02;100.00;93883.31;5066312;28;20170;-50
2023/09/23 01:35:04;;;;;;;1999.90;999.90;;;;;;;12.09;100.00;93891.25;5066318;28;20170;-53
2023/09/23 01:37:30;;;;;;;1999.90;999.90;;;;;;;12.07;100.00;93890.94;5066714;28;20174;-50
2023/09/23 01:39:55;;;;;;;1999.90;999.90;;;;;;;12.04;100.00;93880.88;5066232;28;20196;-50
2023/09/23 01:42:21;;;;;;;1999.90;999.90;;;;;;;12.09;100.00;93899.47;5066659;28;20173;-52
2023/09/23 01:44:47;;;;;;;1999.90;999.90;;;;;;;12.12;100.00;93887.59;5066119;28;20237;-50
2023/09/23 01:47:16;;;;;;;1999.90;999.90;;;;;;;12.12;100.00;93895.81;5066592;28;20228;-51
2023/09/23 01:49:42;;;;;;;1999.90;999.90;;;;;;;12.06;100.00;93900.34;5065748;28;20253;-52
2023/09/23 01:52:08;;;;;;;1999.90;999.90;;;;;;;12.06;100.00;93906.56;5065906;28;20173;-52
2023/09/23 01:54:34;;;;;;;1999.90;999.90;;;;;;;12.07;100.00;93899.13;5066355;28;20248;-53
2023/09/23 01:56:59;;;;;;;1999.90;999.90;;;;;;;12.01;100.00;93898.97;5065787;28;20203;-50
2023/09/23 01:59:25;;;;;;;1999.90;999.90;;;;;;;12.01;100.00;93898.19;5066342;28;20184;-54
2023/09/23 02:01:50;;;;;;;1999.90;999.90;;;;;;;12.03;100.00;93904.75;5066537;28;20174;-53
2023/09/23 02:04:16;;;;;;;1999.90;999.90;;;;;;;12.02;100.00;93916.16;5065655;28;20217;-54
2023/09/23 02:06:42;;;;;;;1999.90;999.90;;;;;;;11.98;100.00;93923.72;5065709;28;20177;-50
2023/09/23 02:09:09;;;;;;;1999.90;999.90;;;;;;;11.92;100.00;93933.72;5065640;28;20264;-51
2023/09/23 02:11:37;;;;;;;1999.90;999.90;;;;;;;12.04;100.00;93952.78;5066172;28;20173;-52
2023/09/23 02:14:04;;;;;;;1999.90;999.90;;;;;;;12.03;100.00;93945.03;5065459;28;20184;-49
2023/09/23 02:16:29;;;;;;;1999.90;999.90;;;;;;;12.05;100.00;93953.53;5065613;28;20192;-51
2023/09/23 02:18:55;;;;;;;1999.90;999.90;;;;;;;11.89;100.00;93942.81;5065955;28;20198;-52
2023/09/23 02:21:20;;;;;;;1999.90;999.90;;;;;;;11.88;100.00;93944.03;5065960;28;20170;-53
2023/09/23 02:23:45;;;;;;;1999.90;999.90;;;;;;;11.87;100.00;93948.72;5065895;28;20185;-50
2023/09/23 02:26:11;;;;;;;1999.90;999.90;;;;;;;11.79;100.00;93952.16;5065824;28;20241;-53
2023/09/23 02:28:37;;;;;;;1999.90;999.90;;;;;;;11.84;100.00;93957.06;5065710;28;20232;-52
2023/09/23 02:31:02;;;;;;;1999.90;999.90;;;;;;;11.87;100.00;93958.91;5065326;28;20177;-54
2023/09/23 02:33:29;;;;;;;1999.90;999.90;;;;;;;11.88;100.00;93961.19;5065157;28;20184;-50
2023/09/23 02:35:54;;;;;;;1999.90;999.90;;;;;;;11.94;100.00;93953.16;5065224;28;20203;-48
2023/09/23 02:38:21;;;;;;;1999.90;999.90;;;;;;;11.97;100.00;93957.75;5065161;28;20177;-54
2023/09/23 02:40:47;;;;;;;1999.90;999.90;;;;;;;11.97;100.00;93957.75;5065082;28;20177;-51
2023/09/23 02:43:13;;;;;;;1999.90;999.90;;;;;;;11.96;100.00;93946.06;5065025;28;20188;-53
2023/09/23 02:45:38;;;;;;;1999.90;999.90;;;;;;;11.95;100.00;93954.72;5065023;28;20208;-49
2023/09/23 02:48:04;;;;;;;1999.90;999.90;;;;;;;11.88;100.00;93954.97;5064801;28;20197;-52
2023/09/23 02:50:29;;;;;;;1999.90;999.90;;;;;;;11.86;100.00;93957.38;5064838;28;20177;-52
2023/09/23 02:52:54;;;;;;;1999.90;999.90;;;;;;;11.88;100.00;93960.44;5064688;28;20176;-53
2023/09/23 02:55:20;;;;;;;1999.90;999.90;;;;;;;11.89;100.00;93961.94;5064703;28;20187;-47
2023/09/23 02:57:49;;;;;;;1999.90;999.90;;;;;;;11.88;100.00;93971.38;5064664;28;20232;-52
2023/09/23 03:00:19;;;;;;;1999.90;999.90;;;;;;;11.84;100.00;93976.97;5064675;28;20180;-51
2023/09/23 03:02:48;;;;;;;1999.90;999.90;;;;;;;11.82;100.00;93984.09;5064629;28;20246;-53
2023/09/23 03:05:17;;;;;;;1999.90;999.90;;;;;;;11.81;100.00;93988.03;5064336;28;20220;-56
2023/09/23 03:07:43;;;;;;;1999.90;999.90;;;;;;;11.82;100.00;93990.34;5065238;28;20223;-50
2023/09/23 03:10:12;;;;;;;1999.90;999.90;;;;;;;11.79;100.00;93998.66;5064834;28;20205;-50
2023/09/23 03:12:43;;;;;;;1999.90;999.90;;;;;;;11.78;100.00;94003.38;5064432;28;20231;-53
2023/09/23 03:15:22;;;;;;;1999.90;999.90;;;;;;;11.80;100.00;94003.69;5065003;28;20170;-49
2023/09/23 03:17:50;;;;;;;1999.90;999.90;;;;;;;11.76;100.00;94011.25;5065214;28;20173;-53
2023/09/23 03:20:25;;;;;;;1999.90;999.90;;;;;;;11.77;100.00;94020.22;5064316;28;20250;-50
2023/09/23 03:22:52;;;;;;;1999.90;999.90;;;;;;;11.79;100.00;94006.84;5064779;28;20177;-52
2023/09/23 03:25:19;;;;;;;1999.90;999.90;;;;;;;11.77;100.00;94009.28;5064238;28;20181;-50
2023/09/23 03:27:44;;;;;;;1999.90;999.90;;;;;;;11.79;100.00;94017.78;5064078;28;20201;-54
2023/09/23 03:30:12;;;;;;;1999.90;999.90;;;;;;;11.80;100.00;94016.59;5064629;28;20176;-50
2023/09/23 03:32:38;;;;;;;1999.90;999.90;;;;;;;11.79;100.00;94012.31;5064201;28;20187;-52
2023/09/23 03:35:04;;;;;;;1999.90;999.90;;;;;;;11.78;100.00;94019.00;5064186;28;20204;-50
2023/09/23 03:37:29;;;;;;;1999.90;999.90;;;;;;;11.79;100.00;94017.78;5064441;28;20173;-53
2023/09/23 03:39:55;;;;;;;1999.90;999.90;;;;;;;11.82;100.00;94022.38;5064498;28;20328;-53
2023/09/23 03:42:21;;;;;;;1999.90;999.90;;;;;;;11.77;100.00;94025.69;5064520;28;20298;-51
2023/09/23 03:44:47;;;;;;;1999.90;999.90;;;;;;;11.80;100.00;94030.28;5063895;28;20188;-49
2023/09/23 03:47:12;;;;;;;1999.90;999.90;;;;;;;11.81;100.00;94040.00;5063924;28;20412;-51
2023/09/23 03:49:37;;;;;;;1999.90;999.90;;;;;;;11.84;100.00;94041.84;5063751;28;20233;-49
2023/09/23 03:52:05;;;;;;;1999.90;999.90;;;;;;;11.85;100.00;94037.91;5064357;28;20177;-52
2023/09/23 03:54:33;;;;;;;1999.90;999.90;;;;;;;11.83;100.00;94051.25;5064237;28;20248;-51
2023/09/23 03:56:58;;;;;;;1999.90;999.90;;;;;;;11.83;100.00;94051.25;5064354;28;20330;-53
2023/09/23 03:59:24;;;;;;;1999.90;999.90;;;;;;;11.83;100.00;94051.25;5064179;28;20176;-49
2023/09/23 04:01:50;;;;;;;1999.90;999.90;;;;;;;11.83;100.00;94051.25;5063670;28;20189;-51
2023/09/23 04:04:17;;;;;;;1999.90;999.90;;;;;;;11.83;100.00;94051.25;5063414;28;20225;-52
2023/09/23 04:06:43;;;;;;;1999.90;999.90;;;;;;;11.83;100.00;94051.25;5063613;28;20204;-52
2023/09/23 04:09:11;;;;;;;1999.90;999.90;;;;;;;11.83;100.00;94051.25;5063637;28;20212;-51
2023/09/23 04:11:37;;;;;;;1999.90;999.90;;;;;;;11.83;100.00;94051.25;5064036;28;20182;-52
2023/09/23 04:14:02;;;;;;;1999.90;999.90;;;;;;;11.83;100.00;94051.25;5064164;28;20208;-52
2023/09/23 04:16:28;;;;;;;1999.90;999.90;;;;;;;11.79;100.00;94067.78;5064306;28;20187;-52
2023/09/23 04:18:53;;;;;;;1999.90;999.90;;;;;;;11.81;100.00;94078.31;5068012;28;20172;-52
2023/09/23 04:21:20;;;;;;;1999.90;999.90;;;;;;;11.80;100.00;94082.25;5068093;28;20170;-52
2023/09/23 04:23:46;;;;;;;1999.90;999.90;;;;;;;11.82;100.00;94075.13;5067641;28;20170;-49
2023/09/23 04:26:12;;;;;;;1999.90;999.90;;;;;;;11.84;100.00;94086.38;5067982;28;20170;-52
2023/09/23 04:28:38;;;;;;;1999.90;999.90;;;;;;;11.80;100.00;94090.44;5067946;28;20193;-52
2023/09/23 04:31:03;;;;;;;1999.90;999.90;;;;;;;11.79;100.00;94088.91;5067502;28;20202;-51
2023/09/23 04:33:29;;;;;;;1999.90;999.90;;;;;;;11.79;100.00;94099.84;5067493;28;20176;-53
2023/09/23 04:36:01;;;;;;;1999.90;999.90;;;;;;;11.78;100.00;94109.25;5067322;28;20169;-51
2023/09/23 04:38:26;;;;;;;1999.90;999.90;;;;;;;11.80;100.00;94106.88;5067948;28;20177;-52
2023/09/23 04:40:52;;;;;;;1999.90;999.90;;;;;;;11.82;100.00;94121.63;5067317;28;20173;-48
2023/09/23 04:43:17;;;;;;;1999.90;999.90;;;;;;;11.83;100.00;94127.84;5067331;28;20189;-51
2023/09/23 04:45:44;;;;;;;1999.90;999.90;;;;;;;11.82;100.00;94120.84;5067660;28;20421;-51
2023/09/23 04:48:09;;;;;;;1999.90;999.90;;;;;;;11.86;100.00;94126.97;5067926;28;20197;-51
2023/09/23 04:50:38;;;;;;;1999.90;999.90;;;;;;;11.90;100.00;94116.66;5066800;28;20263;-49
2023/09/23 04:53:04;;;;;;;1999.90;999.90;;;;;;;11.88;100.00;94119.84;5067666;28;20170;-53
2023/09/23 04:55:30;;;;;;;1999.90;999.90;;;;;;;11.92;100.00;94108.78;5067041;28;20283;-50
2023/09/23 04:57:55;;;;;;;1999.90;999.90;;;;;;;11.91;100.00;94107.25;5066878;28;20201;-49
2023/09/23 05:00:21;;;;;;;1999.90;999.90;;;;;;;11.96;100.00;94098.47;5067357;28;20184;-47
2023/09/23 05:02:48;;;;;;;1999.90;999.90;;;;;;;11.97;100.00;94100.00;5066948;28;20177;-51
2023/09/23 05:05:13;;;;;;;1999.90;999.90;;;;;;;12.01;100.00;94095.16;5066908;28;20217;-52
2023/09/23 05:07:38;;;;;;;1999.90;999.90;;;;;;;12.04;100.00;94097.81;5066724;28;20177;-49
2023/09/23 05:10:05;;;;;;;1999.90;999.90;;;;;;;12.02;100.00;94094.00;5066801;28;20170;-54
2023/09/23 05:12:30;;;;;;;1999.90;999.90;;;;;;;12.01;100.00;94104.16;5067114;28;20212;-51
2023/09/23 05:14:57;;;;;;;1999.90;999.90;;;;;;;12.01;100.00;94103.38;5067169;28;20205;-52
2023/09/23 05:17:26;;;;;;;1999.90;999.90;;;;;;;12.00;100.00;94113.59;5067113;28;20178;-50
2023/09/23 05:19:52;;;;;;;1999.90;999.90;;;;;;;12.01;100.00;94117.84;5067107;28;20187;-49
2023/09/23 05:22:18;;;;;;;1999.90;999.90;;;;;;;12.03;100.00;94120.13;5067036;28;20211;-51
2023/09/23 05:24:47;;;;;;;1999.90;999.90;;;;;;;12.01;100.00;94125.28;5066610;28;20240;-47
2023/09/23 05:27:14;;;;;;;1999.90;999.90;;;;;;;12.01;100.00;94138.94;5066654;28;20188;-54
2023/09/23 05:29:40;;;;;;;1999.90;999.90;;;;;;;12.05;100.00;94136.84;5066786;28;20266;-52
2023/09/23 05:32:05;;;;;;;1999.90;999.90;;;;;;;12.02;100.00;94141.25;5066371;28;20178;-51
2023/09/23 05:34:31;;;;;;;1999.90;999.90;;;;;;;12.05;100.00;94150.53;5066580;28;20200;-50
2023/09/23 05:36:56;;;;;;;1999.90;999.90;;;;;;;11.99;100.00;94144.13;5066287;28;20178;-52
2023/09/23 05:39:22;;;;;;;1999.90;999.90;;;;;;;12.02;100.00;94149.47;5066175;28;20181;-52
2023/09/23 05:41:47;;;;;;;1999.90;999.90;;;;;;;11.96;100.00;94164.91;5066105;28;20204;-51
2023/09/23 05:44:16;;;;;;;1999.90;999.90;;;;;;;11.98;100.00;94167.22;5066154;28;20181;-51
2023/09/23 05:46:42;;;;;;;1999.90;999.90;;;;;;;11.93;100.00;94174.00;5066603;28;20212;-50
2023/09/23 05:49:12;;;;;;;1999.90;999.90;;;;;;;11.96;100.00;94177.81;5065665;28;20205;-50
2023/09/23 05:51:37;;;;;;;1999.90;999.90;;;;;;;11.94;100.00;94183.75;5065862;28;20221;-54
2023/09/23 05:54:03;;;;;;;1999.90;999.90;;;;;;;11.98;100.00;94197.31;5065923;28;20183;-50
2023/09/23 05:56:29;;;;;;;1999.90;999.90;;;;;;;12.00;100.00;94198.41;5065849;28;20170;-51
2023/09/23 05:58:54;;;;;;;1999.90;999.90;;;;;;;12.00;100.00;94198.41;5065758;28;20224;-48
2023/09/23 06:01:20;;;;;;;1999.90;999.90;;;;;;;12.04;100.00;94220.16;5065737;28;20174;-54
2023/09/23 06:03:45;;;;;;;1999.90;999.90;;;;;;;12.10;100.00;94234.81;5066097;28;20264;-52
2023/09/23 06:06:11;;;;;;;1999.90;999.90;;;;;;;12.13;100.00;94226.47;5066281;28;20182;-52
2023/09/23 06:08:37;;;;;;;1999.90;999.90;;;;;;;12.09;100.00;94249.72;5066001;28;20205;-50
2023/09/23 06:11:04;;;;;;;1999.90;999.90;;;;;;;12.14;100.00;94251.88;5065555;28;20234;-53
2023/09/23 06:13:32;;;;;;;1999.90;999.90;;;;;;;12.15;100.00;94272.56;5065537;28;20185;-55
2023/09/23 06:16:02;;;;;;;1999.90;999.90;;;;;;;12.09;100.00;94288.78;5065955;28;20170;-53
2023/09/23 06:18:28;;;;;;;1999.90;999.90;;;;;;;12.06;100.00;94300.59;5065451;28;20224;-50
2023/09/23 06:20:58;;;;;;;1999.90;999.90;;;;;;;12.08;100.00;94314.63;5065378;28;20208;-54
2023/09/23 06:23:24;;;;;;;1999.90;999.90;;;;;;;12.15;100.00;94330.03;5065335;28;20174;-48
2023/09/23 06:25:57;;;;;;;1999.90;999.90;;;;;;;12.25;100.00;94334.44;5065808;28;20193;-52
2023/09/23 06:28:23;;;;;;;1999.90;999.90;;;;;;;12.24;100.00;94332.91;5065182;28;20233;-55
2023/09/23 06:30:48;;;;;;;1999.90;999.90;;;;;;;12.36;100.00;94345.81;5065218;28;20173;-53
2023/09/23 06:33:14;;;;;;;1999.90;999.90;;;;;;;12.46;100.00;94350.19;5065167;28;20166;-53
2023/09/23 06:35:39;;;;;;;1999.90;999.90;;;;;;;12.55;100.00;94358.47;5065213;28;20176;-51
2023/09/23 06:38:04;;;;;;;1999.90;999.90;;;;;;;12.63;100.00;94366.03;5065612;28;20203;-53
2023/09/23 06:40:30;;;;;;;1999.90;999.90;;;;;;;12.69;100.00;94379.94;5064255;28;20170;-51
2023/09/23 06:42:55;;;;;;;1999.90;999.90;;;;;;;12.78;100.00;94404.66;5065461;28;20259;-55
2023/09/23 06:45:21;;;;;;;1999.90;999.90;;;;;;;12.77;100.00;94442.28;5065287;28;20170;-49
2023/09/23 06:47:46;;;;;;;1999.90;999.90;;;;;;;12.81;100.00;94480.50;5065031;28;20180;-53
2023/09/23 06:50:12;;;;;;;1999.90;999.90;;;;;;;12.75;100.00;94515.91;5064821;28;20293;-51
2023/09/23 06:52:37;;;;;;;1999.90;999.90;;;;;;;12.78;100.00;94555.34;5065283;28;20238;-53
2023/09/23 06:55:02;;;;;;;1999.90;999.90;;;;;;;12.72;100.00;94601.69;5065003;28;20239;-52
2023/09/23 06:57:28;;;;;;;1999.90;999.90;;;;;;;12.80;100.00;94629.69;5064642;28;20193;-51
2023/09/23 06:59:53;;;;;;;1999.90;999.90;;;;;;;12.83;100.00;94653.47;5065148;28;20174;-50
2023/09/23 07:02:19;;;;;;;1999.90;999.90;;;;;;;12.84;100.00;94698.84;5065084;28;20193;-50
2023/09/23 07:04:45;;;;;;;1999.90;999.90;;;;;;;12.87;100.00;94747.31;5064528;28;20224;-52
2023/09/23 07:07:11;;;;;;;1999.90;999.90;;;;;;;12.98;100.00;94769.75;5064602;28;20174;-48
2023/09/23 07:09:36;;;;;;;1999.90;999.90;;;;;;;12.98;100.00;94824.56;5064285;28;20198;-51
2023/09/23 07:12:01;;;;;;;1999.90;999.90;;;;;;;13.04;100.00;94858.47;5065049;28;20173;-49
2023/09/23 07:14:27;;;;;;;1999.90;999.90;;;;;;;13.07;100.00;94893.22;5064770;28;20174;-50
2023/09/23 07:16:52;;;;;;;1999.90;999.90;;;;;;;13.08;100.00;94930.44;5064808;28;20177;-48
2023/09/23 07:19:18;;;;;;;1999.90;999.90;;;;;;;13.21;100.00;94966.88;5064711;28;20237;-52
2023/09/23 07:21:43;;;;;;;1999.90;999.90;;;;;;;13.27;100.00;94984.38;5064280;28;20208;-49
2023/09/23 07:24:08;;;;;;;1999.90;999.90;;;;;;;13.26;100.00;95021.22;5064649;28;20169;-53
2023/09/23 07:26:34;;;;;;;1999.90;999.90;;;;;;;13.19;100.00;95057.06;5064815;28;20236;-49
2023/09/23 07:28:59;;;;;;;1999.90;999.90;;;;;;;13.27;100.00;95074.88;5064029;28;20251;-47
2023/09/23 07:31:25;;;;;;;1999.90;999.90;;;;;;;13.33;100.00;95092.34;5064062;28;20174;-51
2023/09/23 07:33:51;;;;;;;1999.90;999.90;;;;;;;13.31;100.00;95105.72;5064419;28;20169;-50
2023/09/23 07:36:17;;;;;;;1999.90;999.90;;;;;;;13.38;100.00;95115.75;5064469;28;20169;-51
2023/09/23 07:38:43;;;;;;;1999.90;999.90;;;;;;;13.33;100.00;95133.47;5064512;28;20239;-50
2023/09/23 07:41:09;;;;;;;1999.90;999.90;;;;;;;13.37;100.00;95144.38;5063930;28;20174;-50
2023/09/23 07:43:34;;;;;;;1999.90;999.90;;;;;;;13.41;100.00;95147.81;5063843;28;20196;-53
2023/09/23 07:46:00;;;;;;;1999.90;999.90;;;;;;;13.45;100.00;95149.28;5063923;28;20212;-53
2023/09/23 07:48:25;;;;;;;1999.90;999.90;;;;;;;13.42;100.00;95166.59;5063724;28;20197;-52
2023/09/23 07:50:51;;;;;;;1999.90;999.90;;;;;;;13.46;100.00;95167.28;5063282;28;20174;-53
2023/09/23 07:53:17;;;;;;;1999.90;999.90;;;;;;;13.51;100.00;95175.00;5064546;28;20219;-54
2023/09/23 07:55:43;;;;;;;1999.90;999.90;;;;;;;13.56;100.00;95171.75;5063790;28;20174;-48
2023/09/23 07:58:09;;;;;;;1999.90;999.90;;;;;;;13.68;100.00;95179.31;5063948;28;20514;-54
2023/09/23 08:00:34;;;;;;;1999.90;999.90;;;;;;;13.77;100.00;95197.94;5063709;28;20237;-50
2023/09/23 08:02:59;;;;;;;1999.90;999.90;;;;;;;13.85;100.00;95208.31;5064044;28;20197;-49
2023/09/23 08:05:25;;;;;;;1999.90;999.90;;;;;;;13.87;100.00;95213.38;5063607;28;20209;-51
2023/09/23 08:07:51;;;;;;;1999.90;999.90;;;;;;;14.00;100.00;95217.75;5063575;28;20177;-48
2023/09/23 08:10:17;;;;;;;1999.90;999.90;;;;;;;13.98;100.00;95233.13;5064339;28;20170;-50
2023/09/23 08:12:44;;;;;;;1999.90;999.90;;;;;;;14.11;100.00;95248.47;5063312;28;20249;-50
2023/09/23 08:15:11;;;;;;;1999.90;999.90;;;;;;;14.12;100.00;95263.75;5063584;28;20531;-46
2023/09/23 08:17:38;;;;;;;1999.90;999.90;;;;;;;14.07;100.00;95283.50;5063468;28;20173;-52
2023/09/23 08:20:17;;;;;;;1999.90;999.90;;;;;;;14.18;100.00;95306.00;5063463;28;20253;-53
2023/09/23 08:22:42;;;;;;;1999.90;999.90;;;;;;;14.21;100.00;95316.13;5063938;28;20185;-47
2023/09/23 08:25:08;;;;;;;1999.90;999.90;;;;;;;14.16;100.00;95327.59;5063495;28;20180;-50
2023/09/23 08:27:33;;;;;;;1999.90;999.90;;;;;;;14.38;100.00;95331.44;5063701;28;20180;-50
2023/09/23 08:29:58;;;;;;;1999.90;999.90;;;;;;;14.49;100.00;95342.94;5063272;28;20209;-51
2023/09/23 08:32:24;;;;;;;1999.90;999.90;;;;;;;14.39;100.00;95354.94;5063855;28;20215;-53
2023/09/23 08:34:49;;;;;;;1999.90;999.90;;;;;;;14.44;100.00;95367.41;5063301;28;20212;-50
2023/09/23 08:37:14;;;;;;;1999.90;999.90;;;;;;;14.63;100.00;95370.09;5063387;28;20170;-50
2023/09/23 08:39:39;;;;;;;1999.90;999.90;;;;;;;14.52;100.00;95379.78;5063350;28;20170;-47
2023/09/23 08:42:05;;;;;;;1999.90;999.90;;;;;;;14.47;100.00;95372.06;5063185;28;20189;-51
2023/09/23 08:44:33;;;;;;;1999.90;999.90;;;;;;;14.68;100.00;95374.31;5063968;28;20166;-49
2023/09/23 08:46:59;;;;;;;1999.90;999.90;;;;;;;14.56;100.00;95374.97;5063646;28;20163;-52
2023/09/23 08:49:26;;;;;;;1999.90;999.90;;;;;;;14.75;100.00;95369.38;5063605;28;20198;-53
2023/09/23 08:51:55;;;;;;;1999.90;999.90;;;;;;;14.88;100.00;95381.25;5063326;28;20272;-48
2023/09/23 08:54:25;;;;;;;1999.90;999.90;;;;;;;15.12;100.00;95385.34;5063938;28;20165;-53
2023/09/23 08:56:52;;;;;;;1999.90;999.90;;;;;;;15.33;100.00;95386.75;5062998;28;20166;-53
2023/09/23 08:59:17;;;;;;;1999.90;999.90;;;;;;;15.30;100.00;95391.16;5063433;28;20219;-49
2023/09/23 09:01:44;;;;;;;1999.90;999.90;;;;;;;15.31;100.00;95398.22;5063103;28;20185;-50
2023/09/23 09:04:12;;;;;;;1999.90;999.90;;;;;;;15.39;100.00;95402.34;5066009;28;20218;-49
2023/09/23 09:06:49;;;;;;;1999.90;999.90;;;;;;;15.59;100.00;95405.72;5067367;28;20170;-48
2023/09/23 09:09:15;;;;;;;1999.90;999.90;;;;;;;15.62;100.00;95415.88;5067256;28;20193;-51
2023/09/23 09:11:40;;;;;;;1999.90;999.90;;;;;;;15.83;100.00;95415.28;5066733;28;20177;-48
2023/09/23 09:14:05;;;;;;;1999.90;999.90;;;;;;;16.02;100.00;95408.84;5067219;28;20177;-51
2023/09/23 09:16:31;;;;;;;1999.90;999.90;;;;;;;16.04;100.00;95422.97;5066727;28;20200;-50
2023/09/23 09:18:56;;;;;;;1999.90;999.90;;;;;;;16.10;100.00;95423.19;5066806;28;20165;-52
2023/09/23 09:21:21;;;;;;;1999.90;999.90;;;;;;;16.32;100.00;95422.09;5067057;28;20173;-50
2023/09/23 09:23:47;;;;;;;1999.90;999.90;;;;;;;16.43;100.00;95428.09;5067337;28;20166;-52
2023/09/23 09:26:12;;;;;;;1999.90;999.90;;;;;;;16.46;100.00;95436.72;5066355;28;20170;-53
2023/09/23 09:28:38;;;;;;;1999.90;999.90;;;;;;;16.39;100.00;95435.69;5066268;28;20201;-53
2023/09/23 09:31:08;;;;;;;1999.90;999.90;;;;;;;16.11;100.00;95439.25;5066780;28;20241;-52
2023/09/23 09:33:36;;;;;;;1999.90;999.90;;;;;;;15.86;100.00;95444.72;5066330;28;20229;-54
2023/09/23 09:36:02;;;;;;;1999.90;999.90;;;;;;;15.90;100.00;95444.63;5066209;28;20212;-53
2023/09/23 09:38:33;;;;;;;1999.90;999.90;;;;;;;15.93;100.00;95441.00;5066141;28;20245;-53
2023/09/23 09:41:04;;;;;;;1999.90;999.90;;;;;;;15.92;100.00;95453.22;5066442;28;20184;-53
2023/09/23 09:43:33;;;;;;;1999.90;999.90;;;;;;;15.68;100.00;95444.44;5066536;28;20158;-51
2023/09/23 09:46:03;;;;;;;1999.90;999.90;;;;;;;15.75;100.00;95449.75;5066027;28;20162;-51
2023/09/23 09:48:32;;;;;;;1999.90;999.90;;;;;;;15.97;100.00;95450.72;5065847;28;20196;-51
2023/09/23 09:50:57;;;;;;;1999.90;999.90;;;;;;;16.12;100.00;95446.34;5066015;28;20215;-52
2023/09/23 09:53:23;;;;;;;1999.90;999.90;;;;;;;16.56;100.00;95446.63;5065933;28;20185;-53
2023/09/23 09:55:49;;;;;;;1999.90;999.90;;;;;;;16.65;100.00;95444.78;5065934;28;20166;-53
2023/09/23 09:58:15;;;;;;;1999.90;999.90;;;;;;;16.60;100.00;95450.09;5065470;28;20224;-52
2023/09/23 10:00:43;;;;;;;1999.90;999.90;;;;;;;16.49;100.00;95444.13;5066092;28;20162;-54
2023/09/23 10:03:12;;;;;;;1999.90;999.90;;;;;;;16.25;100.00;95444.38;5066021;28;20237;-52
2023/09/23 10:05:41;;;;;;;1999.90;999.90;;;;;;;16.27;100.00;95436.44;5066005;28;20210;-53
2023/09/23 10:08:15;;;;;;;1999.90;999.90;;;;;;;16.08;100.00;95442.91;5065604;28;20194;-52
2023/09/23 10:10:47;;;;;;;1999.90;999.90;;;;;;;16.20;100.00;95442.16;5066020;28;20164;-54
2023/09/23 10:13:22;;;;;;;1999.90;999.90;;;;;;;16.60;100.00;95444.56;5065399;28;20170;-54
2023/09/23 10:15:47;;;;;;;1999.90;999.90;;;;;;;17.43;100.00;95443.84;5065901;28;20165;-52
2023/09/23 10:18:16;;;;;;;1999.90;999.90;;;;;;;17.75;100.00;95437.22;5065305;28;20197;-54
2023/09/23 10:20:50;;;;;;;1999.90;999.90;;;;;;;17.51;100.00;95431.31;5065379;28;20161;-49
2023/09/23 10:23:17;;;;;;;1999.90;999.90;;;;;;;17.77;100.00;95440.31;5066114;28;20158;-49
2023/09/23 10:25:43;;;;;;;1999.90;999.90;;;;;;;17.77;100.00;95440.31;5065741;28;20166;-46
2023/09/23 10:28:23;;;;;;;1999.90;999.90;;;;;;;17.77;100.00;95440.31;5065375;28;20251;-48
2023/09/23 10:31:06;;;;;;;1999.90;999.90;;;;;;;18.38;100.00;95426.63;5065042;28;20224;-46
2023/09/23 10:33:35;;;;;;;1999.90;999.90;;;;;;;18.27;100.00;95424.22;5065888;28;20162;-47
2023/09/23 10:36:05;;;;;;;1999.90;999.90;;;;;;;17.95;100.00;95423.88;5065289;28;20246;-55
2023/09/23 10:38:34;;;;;;;1999.90;999.90;;;;;;;17.69;100.00;95434.25;5065026;28;20165;-51
2023/09/23 10:41:00;;;;;;;1999.90;999.90;;;;;;;17.80;100.00;95434.66;5065199;28;20166;-51
2023/09/23 10:43:26;;;;;;;1999.90;999.90;;;;;;;17.92;100.00;95436.56;5065562;28;20220;-50
2023/09/23 10:45:59;;;;;;;1999.90;999.90;;;;;;;17.99;100.00;95435.56;5064986;28;20253;-52